createdAt,value
2022-12-29T00:05:52.217Z,51.61
2022-12-29T01:08:05.973Z,51.28
2022-12-29T01:18:08.239Z,51.91
2022-12-29T01:28:09.566Z,51.61
2022-12-29T01:38:12.270Z,51.68
2022-12-29T01:48:13.876Z,51.93
2022-12-29T01:58:15.380Z,52.40
2022-12-29T02:08:16.712Z,51.64
2022-12-29T02:18:18.746Z,51.84
2022-12-29T02:28:20.068Z,52.46
2022-12-29T02:38:21.512Z,51.93
2022-12-29T02:48:22.804Z,52.47
2022-12-29T02:58:24.122Z,51.94
2022-12-29T03:08:25.501Z,51.98
2022-12-29T03:18:26.837Z,52.20
2022-12-29T03:28:28.177Z,52.25
2022-12-29T03:38:29.476Z,51.67
2022-12-29T03:48:30.770Z,51.61
2022-12-29T03:58:32.131Z,51.39
2022-12-29T04:08:33.503Z,51.27
2022-12-29T04:18:34.828Z,51.29
2022-12-29T04:28:36.151Z,51.41
2022-12-29T04:38:37.680Z,51.09
2022-12-29T04:48:38.984Z,51.03
2022-12-29T04:58:40.275Z,50.75
2022-12-29T05:08:41.580Z,50.52
2022-12-29T05:18:42.867Z,50.22
2022-12-29T05:28:44.135Z,50.16
2022-12-29T05:38:45.495Z,50.19
2022-12-29T05:48:46.764Z,50.12
2022-12-29T05:58:48.090Z,50.04
2022-12-29T06:08:49.503Z,50.08
2022-12-29T06:18:50.798Z,50.32
2022-12-29T06:28:52.087Z,50.37
2022-12-29T06:38:53.402Z,50.44
2022-12-29T06:48:54.756Z,50.35
2022-12-29T06:58:56.124Z,50.19
2022-12-29T07:08:57.635Z,50.17
2022-12-29T07:18:58.925Z,49.96
2022-12-29T07:29:00.238Z,50.35
2022-12-29T07:39:01.559Z,50.11
2022-12-29T07:49:03.098Z,50.11
2022-12-29T07:59:04.517Z,50.21
2022-12-29T08:09:14.751Z,50.08
2022-12-29T08:19:17.965Z,49.97
2022-12-29T08:29:19.537Z,49.80
2022-12-29T08:39:21.112Z,49.19
2022-12-29T08:49:23.669Z,49.13
2022-12-29T08:59:25.316Z,48.92
2022-12-29T09:09:26.730Z,48.79
2022-12-29T09:19:28.192Z,48.69
2022-12-29T09:29:29.718Z,48.28
2022-12-29T09:39:30.983Z,48.05
2022-12-29T09:49:33.889Z,48.02
2022-12-29T09:59:47.757Z,48.03
2022-12-29T10:09:55.162Z,47.98
2022-12-29T10:19:59.787Z,47.72
2022-12-29T10:30:01.399Z,47.61
2022-12-29T10:40:04.699Z,47.79
2022-12-29T10:50:06.505Z,47.64
2022-12-29T11:00:07.935Z,47.74
2022-12-29T11:10:09.381Z,47.73
2022-12-29T11:20:10.765Z,47.73
2022-12-29T11:30:12.301Z,47.63
2022-12-29T11:40:13.825Z,47.61
2022-12-29T11:50:19.693Z,47.55
2022-12-29T12:00:23.113Z,47.52
2022-12-29T12:10:26.977Z,47.76
2022-12-29T12:20:31.286Z,48.29
2022-12-29T12:30:41.368Z,48.47
2022-12-29T12:40:43.500Z,48.60
2022-12-29T13:01:19.911Z,49.68
2022-12-29T13:11:21.363Z,49.80
2022-12-29T13:31:44.599Z,49.25
2022-12-29T13:41:52.103Z,49.03
2022-12-29T13:51:59.863Z,48.83
2022-12-29T14:02:06.536Z,48.79
2022-12-29T14:12:14.735Z,48.60
2022-12-29T14:22:32.351Z,48.57
2022-12-29T14:32:47.212Z,48.55
2022-12-29T14:42:48.568Z,48.53
2022-12-29T14:52:50.006Z,48.60
2022-12-29T15:02:58.880Z,48.19
2022-12-29T15:13:00.340Z,48.03
2022-12-29T15:23:02.272Z,47.97
2022-12-29T15:33:12.980Z,47.73
2022-12-29T15:43:14.358Z,47.68
2022-12-29T15:53:15.867Z,47.39
2022-12-29T16:03:17.521Z,47.06
2022-12-29T16:23:38.579Z,46.56
2022-12-29T16:33:40.040Z,46.50
2022-12-29T16:43:41.336Z,46.42
2022-12-29T16:53:42.733Z,46.55
2022-12-29T17:03:44.109Z,46.39
2022-12-29T17:13:49.235Z,46.49
2022-12-29T17:23:50.698Z,46.43
2022-12-29T17:33:52.289Z,45.91
2022-12-29T17:43:53.697Z,46.02
2022-12-29T17:53:55.199Z,45.77
2022-12-29T18:03:56.756Z,45.14
2022-12-29T18:13:58.308Z,44.88
2022-12-29T18:23:59.729Z,44.83
2022-12-29T18:44:23.811Z,44.83
2022-12-29T18:54:28.362Z,44.66
2022-12-29T19:04:29.679Z,44.52
2022-12-29T19:45:36.153Z,44.13
2022-12-29T19:55:47.919Z,44.24
2022-12-29T20:37:07.150Z,44.10
2022-12-29T20:47:12.028Z,43.71
2022-12-29T21:18:06.680Z,43.52
2022-12-29T21:28:15.973Z,43.12
2022-12-29T21:48:46.998Z,43.11
2022-12-29T21:58:48.671Z,42.82
2022-12-29T22:19:22.063Z,42.24
2022-12-29T22:29:23.718Z,42.46
2022-12-29T22:39:26.810Z,42.51
2022-12-29T22:49:29.150Z,42.35
2022-12-29T22:59:30.697Z,42.51
2022-12-29T23:09:32.242Z,41.97
2022-12-29T23:19:33.493Z,41.55
2022-12-29T23:29:35.030Z,41.03
2022-12-29T23:39:37.477Z,41.94
2022-12-29T23:49:39.852Z,41.52
2022-12-29T23:59:41.750Z,41.97
